sensor_id;sensor_type;location;lat;lon;timestamp;pressure;altitude;pressure_sealevel;temperature;humidity
67109;BME280;54027;50.786;7.058;2023-06-10T00:02:04;100836.56;;;19.83;62.51
67109;BME280;54027;50.786;7.058;2023-06-10T00:04:29;100836.81;;;19.77;62.79
67109;BME280;54027;50.786;7.058;2023-06-10T00:06:55;100837.84;;;19.73;63.21
67109;BME280;54027;50.786;7.058;2023-06-10T00:09:20;100840.75;;;19.67;63.36
67109;BME280;54027;50.786;7.058;2023-06-10T00:11:48;100840.03;;;19.63;63.60
67109;BME280;54027;50.786;7.058;2023-06-10T00:14:14;100844.56;;;19.59;63.98
67109;BME280;54027;50.786;7.058;2023-06-10T00:16:40;100840.38;;;19.55;64.06
67109;BME280;54027;50.786;7.058;2023-06-10T00:19:06;100842.19;;;19.53;64.05
67109;BME280;54027;50.786;7.058;2023-06-10T00:21:32;100833.56;;;19.51;63.69
67109;BME280;54027;50.786;7.058;2023-06-10T00:24:05;100837.22;;;19.47;63.96
67109;BME280;54027;50.786;7.058;2023-06-10T00:26:32;100833.91;;;19.44;63.96
67109;BME280;54027;50.786;7.058;2023-06-10T00:28:58;100842.91;;;19.38;64.46
67109;BME280;54027;50.786;7.058;2023-06-10T00:31:23;100836.97;;;19.33;64.69
67109;BME280;54027;50.786;7.058;2023-06-10T00:33:48;100844.09;;;19.30;64.95
67109;BME280;54027;50.786;7.058;2023-06-10T00:36:14;100841.69;;;19.25;65.19
67109;BME280;54027;50.786;7.058;2023-06-10T00:38:39;100845.34;;;19.21;65.31
67109;BME280;54027;50.786;7.058;2023-06-10T00:41:06;100841.22;;;19.16;65.63
67109;BME280;54027;50.786;7.058;2023-06-10T00:43:32;100850.94;;;19.14;65.79
67109;BME280;54027;50.786;7.058;2023-06-10T00:45:57;100851.97;;;19.10;66.25
67109;BME280;54027;50.786;7.058;2023-06-10T00:48:23;100853.88;;;19.06;66.28
67109;BME280;54027;50.786;7.058;2023-06-10T00:50:48;100848.88;;;19.00;66.55
67109;BME280;54027;50.786;7.058;2023-06-10T00:53:14;100860.34;;;18.97;66.72
67109;BME280;54027;50.786;7.058;2023-06-10T00:55:40;100858.78;;;18.93;66.98
67109;BME280;54027;50.786;7.058;2023-06-10T00:58:06;100864.16;;;18.90;67.16
67109;BME280;54027;50.786;7.058;2023-06-10T01:00:32;100861.69;;;18.86;67.50
67109;BME280;54027;50.786;7.058;2023-06-10T01:02:57;100859.16;;;18.83;67.74
67109;BME280;54027;50.786;7.058;2023-06-10T01:05:24;100863.66;;;18.79;68.13
67109;BME280;54027;50.786;7.058;2023-06-10T01:08:53;100865.59;;;18.76;68.38
67109;BME280;54027;50.786;7.058;2023-06-10T01:11:00;100852.63;;;18.73;68.45
67109;BME280;54027;50.786;7.058;2023-06-10T01:13:26;100853.53;;;18.72;68.24
67109;BME280;54027;50.786;7.058;2023-06-10T01:15:55;100855.28;;;18.71;68.29
67109;BME280;54027;50.786;7.058;2023-06-10T01:18:21;100845.84;;;18.67;68.30
67109;BME280;54027;50.786;7.058;2023-06-10T01:20:47;100854.75;;;18.63;68.42
67109;BME280;54027;50.786;7.058;2023-06-10T01:23:14;100854.00;;;18.60;69.00
67109;BME280;54027;50.786;7.058;2023-06-10T01:25:49;100852.41;;;18.56;69.51
67109;BME280;54027;50.786;7.058;2023-06-10T01:33:36;100863.47;;;18.40;70.87
67109;BME280;54027;50.786;7.058;2023-06-10T01:36:03;100863.88;;;18.31;71.18
67109;BME280;54027;50.786;7.058;2023-06-10T01:38:33;100856.50;;;18.19;71.52
67109;BME280;54027;50.786;7.058;2023-06-10T01:40:59;100859.50;;;18.09;71.68
67109;BME280;54027;50.786;7.058;2023-06-10T01:43:25;100857.19;;;18.01;71.97
67109;BME280;54027;50.786;7.058;2023-06-10T01:45:50;100860.91;;;17.94;72.08
67109;BME280;54027;50.786;7.058;2023-06-10T01:48:16;100855.97;;;17.86;72.22
67109;BME280;54027;50.786;7.058;2023-06-10T01:50:41;100859.66;;;17.81;72.40
67109;BME280;54027;50.786;7.058;2023-06-10T01:53:09;100854.56;;;17.76;72.60
67109;BME280;54027;50.786;7.058;2023-06-10T01:55:34;100851.28;;;17.71;72.54
67109;BME280;54027;50.786;7.058;2023-06-10T01:58:00;100863.63;;;17.66;72.87
67109;BME280;54027;50.786;7.058;2023-06-10T02:00:25;100862.09;;;17.61;72.99
67109;BME280;54027;50.786;7.058;2023-06-10T02:02:50;100866.59;;;17.57;73.34
67109;BME280;54027;50.786;7.058;2023-06-10T02:05:16;100864.22;;;17.51;73.26
67109;BME280;54027;50.786;7.058;2023-06-10T02:07:41;100864.34;;;17.47;73.59
67109;BME280;54027;50.786;7.058;2023-06-10T02:10:07;100868.78;;;17.45;73.63
67109;BME280;54027;50.786;7.058;2023-06-10T02:12:33;100860.09;;;17.44;73.78
67109;BME280;54027;50.786;7.058;2023-06-10T02:14:59;100863.59;;;17.43;73.96
67109;BME280;54027;50.786;7.058;2023-06-10T02:17:24;100861.91;;;17.42;74.30
67109;BME280;54027;50.786;7.058;2023-06-10T02:19:50;100864.56;;;17.40;74.32
67109;BME280;54027;50.786;7.058;2023-06-10T02:22:21;100873.31;;;17.39;74.34
67109;BME280;54027;50.786;7.058;2023-06-10T02:24:46;100871.66;;;17.37;74.79
67109;BME280;54027;50.786;7.058;2023-06-10T02:27:12;100869.16;;;17.34;74.92
67109;BME280;54027;50.786;7.058;2023-06-10T02:29:37;100873.59;;;17.32;75.05
67109;BME280;54027;50.786;7.058;2023-06-10T02:32:03;100872.72;;;17.31;75.12
67109;BME280;54027;50.786;7.058;2023-06-10T02:34:28;100873.66;;;17.30;75.69
67109;BME280;54027;50.786;7.058;2023-06-10T02:36:54;100876.28;;;17.29;75.84
67109;BME280;54027;50.786;7.058;2023-06-10T02:39:20;100869.34;;;17.28;75.50
67109;BME280;54027;50.786;7.058;2023-06-10T02:41:45;100872.91;;;17.27;75.81
67109;BME280;54027;50.786;7.058;2023-06-10T02:44:11;100870.28;;;17.27;76.00
67109;BME280;54027;50.786;7.058;2023-06-10T02:46:36;100876.41;;;17.26;75.97
67109;BME280;54027;50.786;7.058;2023-06-10T02:49:01;100874.69;;;17.25;76.17
67109;BME280;54027;50.786;7.058;2023-06-10T02:51:27;100874.75;;;17.23;75.84
67109;BME280;54027;50.786;7.058;2023-06-10T02:53:52;100873.00;;;17.24;76.01
67109;BME280;54027;50.786;7.058;2023-06-10T02:56:18;100869.34;;;17.28;75.17
67109;BME280;54027;50.786;7.058;2023-06-10T02:58:44;100863.91;;;17.34;74.21
67109;BME280;54027;50.786;7.058;2023-06-10T03:01:09;100866.63;;;17.31;74.57
67109;BME280;54027;50.786;7.058;2023-06-10T03:03:35;100865.00;;;17.28;74.88
67109;BME280;54027;50.786;7.058;2023-06-10T03:06:02;100875.53;;;17.25;75.06
67109;BME280;54027;50.786;7.058;2023-06-10T03:08:28;100879.00;;;17.26;75.16
67109;BME280;54027;50.786;7.058;2023-06-10T03:10:54;100873.78;;;17.26;75.40
67109;BME280;54027;50.786;7.058;2023-06-10T03:13:19;100877.28;;;17.25;75.09
67109;BME280;54027;50.786;7.058;2023-06-10T03:15:44;100879.19;;;17.21;75.37
67109;BME280;54027;50.786;7.058;2023-06-10T03:18:11;100880.22;;;17.16;75.82
67109;BME280;54027;50.786;7.058;2023-06-10T03:20:36;100881.28;;;17.10;76.16
67109;BME280;54027;50.786;7.058;2023-06-10T03:23:04;100891.91;;;17.06;76.47
67109;BME280;54027;50.786;7.058;2023-06-10T03:25:31;100893.81;;;17.01;76.78
67109;BME280;54027;50.786;7.058;2023-06-10T03:27:56;100894.72;;;16.98;76.73
67109;BME280;54027;50.786;7.058;2023-06-10T03:30:22;100900.06;;;16.95;76.94
67109;BME280;54027;50.786;7.058;2023-06-10T03:32:47;100895.84;;;16.91;77.20
67109;BME280;54027;50.786;7.058;2023-06-10T03:35:14;100894.19;;;16.89;77.47
67109;BME280;54027;50.786;7.058;2023-06-10T03:37:40;100895.09;;;16.88;77.99
67109;BME280;54027;50.786;7.058;2023-06-10T03:40:07;100905.53;;;16.88;78.04
67109;BME280;54027;50.786;7.058;2023-06-10T03:42:33;100898.56;;;16.88;78.33
67109;BME280;54027;50.786;7.058;2023-06-10T03:44:59;100902.03;;;16.89;78.26
67109;BME280;54027;50.786;7.058;2023-06-10T03:47:24;100905.47;;;16.89;78.39
67109;BME280;54027;50.786;7.058;2023-06-10T03:49:49;100898.50;;;16.90;78.46
67109;BME280;54027;50.786;7.058;2023-06-10T03:52:15;100907.94;;;16.94;77.92
67109;BME280;54027;50.786;7.058;2023-06-10T03:54:40;100907.94;;;16.94;78.36
67109;BME280;54027;50.786;7.058;2023-06-10T03:57:05;100908.75;;;16.96;78.09
67109;BME280;54027;50.786;7.058;2023-06-10T03:59:31;100912.22;;;16.96;77.81
67109;BME280;54027;50.786;7.058;2023-06-10T04:01:56;100910.47;;;16.97;78.10
67109;BME280;54027;50.786;7.058;2023-06-10T04:04:22;100913.00;;;16.98;78.25
67109;BME280;54027;50.786;7.058;2023-06-10T04:06:48;100910.28;;;17.03;78.16
67109;BME280;54027;50.786;7.058;2023-06-10T04:09:14;100904.88;;;17.07;78.08
67109;BME280;54027;50.786;7.058;2023-06-10T04:11:41;100909.97;;;17.12;77.79
67109;BME280;54027;50.786;7.058;2023-06-10T04:14:06;100908.06;;;17.17;78.04
67109;BME280;54027;50.786;7.058;2023-06-10T04:16:32;100901.72;;;17.24;77.89
67109;BME280;54027;50.786;7.058;2023-06-10T04:18:58;100908.44;;;17.31;77.90
67109;BME280;54027;50.786;7.058;2023-06-10T04:21:24;100906.56;;;17.36;77.90
67109;BME280;54027;50.786;7.058;2023-06-10T04:23:49;100910.72;;;17.41;77.85
67109;BME280;54027;50.786;7.058;2023-06-10T04:26:15;100917.47;;;17.47;77.79
67109;BME280;54027;50.786;7.058;2023-06-10T04:28:42;100918.28;;;17.49;77.88
67109;BME280;54027;50.786;7.058;2023-06-10T04:31:08;100914.69;;;17.52;78.53
67109;BME280;54027;50.786;7.058;2023-06-10T04:33:33;100916.28;;;17.57;78.08
67109;BME280;54027;50.786;7.058;2023-06-10T04:35:59;100920.47;;;17.61;78.01
67109;BME280;54027;50.786;7.058;2023-06-10T04:38:24;100919.47;;;17.65;77.33
67109;BME280;54027;50.786;7.058;2023-06-10T04:40:50;100918.44;;;17.69;77.23
67109;BME280;54027;50.786;7.058;2023-06-10T04:43:15;100918.44;;;17.69;76.89
67109;BME280;54027;50.786;7.058;2023-06-10T04:45:41;100916.56;;;17.73;76.38
67109;BME280;54027;50.786;7.058;2023-06-10T04:48:10;100914.72;;;17.76;76.42
67109;BME280;54027;50.786;7.058;2023-06-10T04:50:36;100914.44;;;17.84;76.31
67109;BME280;54027;50.786;7.058;2023-06-10T04:53:01;100912.53;;;17.89;76.18
67109;BME280;54027;50.786;7.058;2023-06-10T04:55:26;100919.31;;;17.94;75.93
67109;BME280;54027;50.786;7.058;2023-06-10T04:57:52;100922.72;;;17.96;76.23
67109;BME280;54027;50.786;7.058;2023-06-10T05:00:17;100925.22;;;18.00;76.30
67109;BME280;54027;50.786;7.058;2023-06-10T05:02:43;100917.13;;;18.07;76.03
67109;BME280;54027;50.786;7.058;2023-06-10T05:05:10;100909.75;;;18.17;75.83
67109;BME280;54027;50.786;7.058;2023-06-10T05:07:35;100914.66;;;18.26;75.84
67109;BME280;54027;50.786;7.058;2023-06-10T05:10:00;100911.69;;;18.35;75.97
67109;BME280;54027;50.786;7.058;2023-06-10T05:12:26;100912.28;;;18.43;75.84
67109;BME280;54027;50.786;7.058;2023-06-10T05:14:52;100906.59;;;18.53;75.58
67109;BME280;54027;50.786;7.058;2023-06-10T05:17:17;100910.63;;;18.62;75.50
67109;BME280;54027;50.786;7.058;2023-06-10T05:19:43;100905.81;;;18.73;74.64
67109;BME280;54027;50.786;7.058;2023-06-10T05:22:08;100908.91;;;18.84;74.39
67109;BME280;54027;50.786;7.058;2023-06-10T05:24:34;100910.31;;;18.93;74.20
67109;BME280;54027;50.786;7.058;2023-06-10T05:26:59;100905.56;;;19.02;74.01
67109;BME280;54027;50.786;7.058;2023-06-10T05:29:25;100910.28;;;19.15;73.76
67109;BME280;54027;50.786;7.058;2023-06-10T05:31:51;100909.75;;;19.27;73.08
67109;BME280;54027;50.786;7.058;2023-06-10T05:34:16;100903.19;;;19.38;72.50
67109;BME280;54027;50.786;7.058;2023-06-10T05:36:41;100893.00;;;19.51;71.61
67109;BME280;54027;50.786;7.058;2023-06-10T05:39:09;100893.34;;;19.63;71.23
67109;BME280;54027;50.786;7.058;2023-06-10T05:41:34;100898.91;;;19.76;71.11
67109;BME280;54027;50.786;7.058;2023-06-10T05:44:00;100907.19;;;19.87;71.25
67109;BME280;54027;50.786;7.058;2023-06-10T05:46:25;100904.06;;;19.98;70.31
67109;BME280;54027;50.786;7.058;2023-06-10T05:48:50;100898.25;;;20.10;69.75
67109;BME280;54027;50.786;7.058;2023-06-10T05:51:16;100871.53;;;20.21;67.11
67109;BME280;54027;50.786;7.058;2023-06-10T05:53:41;100877.09;;;20.33;66.97
67109;BME280;54027;50.786;7.058;2023-06-10T05:56:07;100828.91;;;20.51;63.96
67109;BME280;54027;50.786;7.058;2023-06-10T05:58:32;100839.53;;;20.67;63.21
67109;BME280;54027;50.786;7.058;2023-06-10T06:00:57;100830.94;;;20.82;62.55
67109;BME280;54027;50.786;7.058;2023-06-10T06:03:23;100847.88;;;20.94;62.51
67109;BME280;54027;50.786;7.058;2023-06-10T06:05:48;100833.38;;;21.04;61.83
67109;BME280;54027;50.786;7.058;2023-06-10T06:08:14;100830.19;;;21.14;61.02
67109;BME280;54027;50.786;7.058;2023-06-10T06:10:42;100826.88;;;21.28;60.40
67109;BME280;54027;50.786;7.058;2023-06-10T06:13:08;100825.53;;;21.37;59.70
67109;BME280;54027;50.786;7.058;2023-06-10T06:15:33;100827.53;;;21.49;59.72
67109;BME280;54027;50.786;7.058;2023-06-10T06:17:58;100828.00;;;21.57;59.49
67109;BME280;54027;50.786;7.058;2023-06-10T06:20:24;100810.88;;;21.65;58.29
67109;BME280;54027;50.786;7.058;2023-06-10T06:22:49;100795.03;;;21.67;57.33
67109;BME280;54027;50.786;7.058;2023-06-10T06:25:14;100806.91;;;21.74;57.33
67109;BME280;54027;50.786;7.058;2023-06-10T06:27:40;100800.47;;;21.79;56.82
67109;BME280;54027;50.786;7.058;2023-06-10T06:30:06;100809.63;;;21.88;57.66
67109;BME280;54027;50.786;7.058;2023-06-10T06:32:32;100798.88;;;21.93;56.96
67109;BME280;54027;50.786;7.058;2023-06-10T06:34:57;100809.81;;;22.01;57.28
67109;BME280;54027;50.786;7.058;2023-06-10T06:37:24;100809.50;;;22.07;56.53
67109;BME280;54027;50.786;7.058;2023-06-10T06:39:50;100806.84;;;22.07;56.36
67109;BME280;54027;50.786;7.058;2023-06-10T06:42:16;100825.38;;;22.21;57.08
67109;BME280;54027;50.786;7.058;2023-06-10T06:44:42;100799.31;;;22.32;55.61
67109;BME280;54027;50.786;7.058;2023-06-10T06:47:07;100792.19;;;22.50;54.62
67109;BME280;54027;50.786;7.058;2023-06-10T06:49:33;100788.16;;;22.58;54.16
67109;BME280;54027;50.786;7.058;2023-06-10T06:51:58;100794.00;;;22.63;55.07
67109;BME280;54027;50.786;7.058;2023-06-10T06:54:23;100776.56;;;22.76;53.21
67109;BME280;54027;50.786;7.058;2023-06-10T06:56:50;100776.03;;;22.85;52.96
67109;BME280;54027;50.786;7.058;2023-06-10T06:59:15;100774.34;;;22.99;52.43
67109;BME280;54027;50.786;7.058;2023-06-10T07:01:44;100777.38;;;23.07;52.08
67109;BME280;54027;50.786;7.058;2023-06-10T07:04:09;100757.22;;;23.06;51.36
67109;BME280;54027;50.786;7.058;2023-06-10T07:06:35;100777.66;;;23.16;52.26
67109;BME280;54027;50.786;7.058;2023-06-10T07:09:00;100777.53;;;23.19;52.04
67109;BME280;54027;50.786;7.058;2023-06-10T07:11:26;100773.78;;;23.23;51.87
67109;BME280;54027;50.786;7.058;2023-06-10T07:13:51;100769.06;;;23.28;51.50
67109;BME280;54027;50.786;7.058;2023-06-10T07:16:16;100765.31;;;23.32;50.66
67109;BME280;54027;50.786;7.058;2023-06-10T07:18:42;100780.66;;;23.40;51.13
67109;BME280;54027;50.786;7.058;2023-06-10T07:21:07;100782.25;;;23.42;51.24
67109;BME280;54027;50.786;7.058;2023-06-10T07:23:32;100773.78;;;23.52;50.51
67109;BME280;54027;50.786;7.058;2023-06-10T07:25:58;100752.47;;;23.55;49.15
67109;BME280;54027;50.786;7.058;2023-06-10T07:28:23;100757.75;;;23.55;49.41
67109;BME280;54027;50.786;7.058;2023-06-10T07:30:48;100746.25;;;23.70;48.76
67109;BME280;54027;50.786;7.058;2023-06-10T07:33:14;100747.16;;;23.83;48.99
67109;BME280;54027;50.786;7.058;2023-06-10T07:35:39;100749.69;;;23.84;48.87
67109;BME280;54027;50.786;7.058;2023-06-10T07:38:04;100743.28;;;23.88;48.43
67109;BME280;54027;50.786;7.058;2023-06-10T07:40:30;100727.25;;;23.91;47.46
67109;BME280;54027;50.786;7.058;2023-06-10T07:42:55;100730.63;;;23.93;47.02
67109;BME280;54027;50.786;7.058;2023-06-10T07:45:21;100742.16;;;24.07;47.56
67109;BME280;54027;50.786;7.058;2023-06-10T07:47:46;100723.59;;;24.21;46.71
67109;BME280;54027;50.786;7.058;2023-06-10T07:50:11;100735.09;;;24.20;47.48
67109;BME280;54027;50.786;7.058;2023-06-10T07:52:37;100743.34;;;24.15;47.36
67109;BME280;54027;50.786;7.058;2023-06-10T07:55:04;100734.72;;;24.26;47.17
67109;BME280;54027;50.786;7.058;2023-06-10T07:57:30;100749.38;;;24.44;46.97
67109;BME280;54027;50.786;7.058;2023-06-10T07:59:56;100729.13;;;24.57;46.15
67109;BME280;54027;50.786;7.058;2023-06-10T08:02:22;100749.19;;;24.60;47.23
67109;BME280;54027;50.786;7.058;2023-06-10T08:04:48;100733.66;;;24.68;46.59
67109;BME280;54027;50.786;7.058;2023-06-10T08:07:13;100725.69;;;24.82;45.63
67109;BME280;54027;50.786;7.058;2023-06-10T08:09:38;100725.19;;;24.89;45.58
67109;BME280;54027;50.786;7.058;2023-06-10T08:12:05;100712.81;;;24.90;44.59
67109;BME280;54027;50.786;7.058;2023-06-10T08:14:30;100731.41;;;25.01;45.93
67109;BME280;54027;50.786;7.058;2023-06-10T08:16:56;100725.28;;;25.00;44.91
67109;BME280;54027;50.786;7.058;2023-06-10T08:19:21;100713.00;;;25.12;44.20
67109;BME280;54027;50.786;7.058;2023-06-10T08:21:46;100729.72;;;25.25;44.78
67109;BME280;54027;50.786;7.058;2023-06-10T08:24:12;100737.38;;;25.42;44.57
67109;BME280;54027;50.786;7.058;2023-06-10T08:26:38;100722.44;;;25.41;44.08
67109;BME280;54027;50.786;7.058;2023-06-10T08:29:04;100726.91;;;25.41;44.53
67109;BME280;54027;50.786;7.058;2023-06-10T08:31:29;100722.53;;;25.40;44.08
67109;BME280;54027;50.786;7.058;2023-06-10T08:33:55;100725.84;;;25.43;44.24
67109;BME280;54027;50.786;7.058;2023-06-10T08:36:20;100721.06;;;25.48;43.93
67109;BME280;54027;50.786;7.058;2023-06-10T08:38:45;100721.69;;;25.52;43.91
67109;BME280;54027;50.786;7.058;2023-06-10T08:41:14;100733.00;;;25.54;44.03
67109;BME280;54027;50.786;7.058;2023-06-10T08:43:46;100735.63;;;25.67;44.49
67109;BME280;54027;50.786;7.058;2023-06-10T08:46:14;100725.88;;;25.80;44.03
67109;BME280;54027;50.786;7.058;2023-06-10T08:48:42;100720.78;;;25.77;43.18
67109;BME280;54027;50.786;7.058;2023-06-10T08:51:09;100762.88;;;25.92;45.31
67109;BME280;54027;50.786;7.058;2023-06-10T08:53:37;100720.19;;;25.97;43.13
67109;BME280;54027;50.786;7.058;2023-06-10T08:56:04;100725.13;;;26.01;42.93
67109;BME280;54027;50.786;7.058;2023-06-10T08:58:32;100723.03;;;26.06;43.03
67109;BME280;54027;50.786;7.058;2023-06-10T09:00:58;100723.03;;;26.06;42.76
67109;BME280;54027;50.786;7.058;2023-06-10T09:03:25;100728.06;;;26.22;43.30
67109;BME280;54027;50.786;7.058;2023-06-10T09:05:50;100714.91;;;26.44;42.25
67109;BME280;54027;50.786;7.058;2023-06-10T09:08:16;100734.97;;;26.59;42.56
67109;BME280;54027;50.786;7.058;2023-06-10T09:10:42;100721.75;;;26.70;42.64
67109;BME280;54027;50.786;7.058;2023-06-10T09:13:07;100710.66;;;26.65;41.37
67109;BME280;54027;50.786;7.058;2023-06-10T09:15:33;100714.63;;;26.71;41.51
67109;BME280;54027;50.786;7.058;2023-06-10T09:17:59;100710.63;;;26.89;41.35
67109;BME280;54027;50.786;7.058;2023-06-10T09:20:25;100710.47;;;26.91;41.56
67109;BME280;54027;50.786;7.058;2023-06-10T09:22:50;100718.81;;;26.97;41.78
67109;BME280;54027;50.786;7.058;2023-06-10T09:25:16;100718.47;;;27.13;41.98
67109;BME280;54027;50.786;7.058;2023-06-10T09:27:49;100692.53;;;27.16;40.81
67109;BME280;54027;50.786;7.058;2023-06-10T09:30:27;100696.53;;;27.22;40.83
67109;BME280;54027;50.786;7.058;2023-06-10T09:32:58;100700.50;;;27.27;40.86
67109;BME280;54027;50.786;7.058;2023-06-10T09:35:27;100726.69;;;27.21;41.36
67109;BME280;54027;50.786;7.058;2023-06-10T09:37:54;100721.97;;;27.36;41.61
67109;BME280;54027;50.786;7.058;2023-06-10T09:40:20;100720.09;;;27.49;41.87
67109;BME280;54027;50.786;7.058;2023-06-10T09:42:46;100701.84;;;27.66;40.64
67109;BME280;54027;50.786;7.058;2023-06-10T09:45:18;100698.09;;;27.69;40.41
67109;BME280;54027;50.786;7.058;2023-06-10T09:47:46;100714.16;;;27.78;41.71
67109;BME280;54027;50.786;7.058;2023-06-10T09:50:11;100672.56;;;27.89;39.72
67109;BME280;54027;50.786;7.058;2023-06-10T09:52:37;100684.84;;;28.12;40.06
67109;BME280;54027;50.786;7.058;2023-06-10T09:55:03;100670.03;;;28.30;38.60
67109;BME280;54027;50.786;7.058;2023-06-10T09:57:32;100666.47;;;28.20;38.39
67109;BME280;54027;50.786;7.058;2023-06-10T10:00:05;100675.84;;;28.24;38.47
67109;BME280;54027;50.786;7.058;2023-06-10T10:02:31;100675.31;;;28.41;38.86
67109;BME280;54027;50.786;7.058;2023-06-10T10:05:03;100678.25;;;28.27;38.20
67109;BME280;54027;50.786;7.058;2023-06-10T10:07:29;100677.41;;;28.26;38.46
67109;BME280;54027;50.786;7.058;2023-06-10T10:09:55;100686.44;;;28.35;39.29
67109;BME280;54027;50.786;7.058;2023-06-10T10:12:21;100689.31;;;28.43;39.27
67109;BME280;54027;50.786;7.058;2023-06-10T10:14:47;100673.22;;;28.45;37.95
67109;BME280;54027;50.786;7.058;2023-06-10T10:17:15;100669.31;;;28.49;37.83
67109;BME280;54027;50.786;7.058;2023-06-10T10:19:50;100689.16;;;28.65;38.92
67109;BME280;54027;50.786;7.058;2023-06-10T10:22:22;100676.16;;;28.83;38.97
67109;BME280;54027;50.786;7.058;2023-06-10T10:24:53;100681.84;;;28.99;38.63
67109;BME280;54027;50.786;7.058;2023-06-10T10:27:28;100663.59;;;29.25;37.36
67109;BME280;54027;50.786;7.058;2023-06-10T10:29:54;100636.88;;;29.26;36.21
67109;BME280;54027;50.786;7.058;2023-06-10T10:32:29;100637.06;;;29.34;35.85
67109;BME280;54027;50.786;7.058;2023-06-10T10:35:08;100639.06;;;29.42;35.38
67109;BME280;54027;50.786;7.058;2023-06-10T10:37:35;100619.44;;;29.53;34.26
67109;BME280;54027;50.786;7.058;2023-06-10T10:40:01;100651.16;;;29.84;35.59
67109;BME280;54027;50.786;7.058;2023-06-10T10:42:28;100636.03;;;29.85;34.50
67109;BME280;54027;50.786;7.058;2023-06-10T10:44:54;100614.59;;;29.96;33.22
67109;BME280;54027;50.786;7.058;2023-06-10T10:47:27;100600.13;;;30.18;31.52
67109;BME280;54027;50.786;7.058;2023-06-10T10:49:54;100606.72;;;30.42;31.70
67109;BME280;54027;50.786;7.058;2023-06-10T10:52:20;100613.41;;;30.46;31.84
67109;BME280;54027;50.786;7.058;2023-06-10T10:54:46;100630.00;;;30.69;32.40
67109;BME280;54027;50.786;7.058;2023-06-10T10:57:12;100614.91;;;30.87;31.92
67109;BME280;54027;50.786;7.058;2023-06-10T10:59:44;100616.81;;;30.95;32.03
67109;BME280;54027;50.786;7.058;2023-06-10T11:02:10;100613.25;;;30.77;32.45
67109;BME280;54027;50.786;7.058;2023-06-10T11:04:35;100617.44;;;30.79;31.91
67109;BME280;54027;50.786;7.058;2023-06-10T11:07:07;100625.34;;;31.08;32.92
67109;BME280;54027;50.786;7.058;2023-06-10T11:09:33;100593.72;;;31.13;30.28
67109;BME280;54027;50.786;7.058;2023-06-10T11:11:59;100613.78;;;31.44;31.85
67109;BME280;54027;50.786;7.058;2023-06-10T11:14:29;100579.97;;;31.08;29.80
67109;BME280;54027;50.786;7.058;2023-06-10T11:16:59;100582.03;;;31.41;29.31
67109;BME280;54027;50.786;7.058;2023-06-10T11:19:34;100594.53;;;31.68;30.30
67109;BME280;54027;50.786;7.058;2023-06-10T11:22:02;100589.63;;;31.64;29.72
67109;BME280;54027;50.786;7.058;2023-06-10T11:24:29;100599.78;;;31.60;30.48
67109;BME280;54027;50.786;7.058;2023-06-10T11:27:14;100592.09;;;31.75;29.91
67109;BME280;54027;50.786;7.058;2023-06-10T11:29:39;100577.38;;;31.71;29.31
67109;BME280;54027;50.786;7.058;2023-06-10T11:32:19;100568.41;;;31.80;28.00
67109;BME280;54027;50.786;7.058;2023-06-10T11:34:52;100574.09;;;32.20;28.45
67109;BME280;54027;50.786;7.058;2023-06-10T11:37:18;100575.88;;;32.55;28.55
67109;BME280;54027;50.786;7.058;2023-06-10T11:39:43;100571.56;;;32.62;28.09
67109;BME280;54027;50.786;7.058;2023-06-10T11:42:10;100597.56;;;32.95;28.71
67109;BME280;54027;50.786;7.058;2023-06-10T11:44:36;100583.38;;;33.11;27.13
67109;BME280;54027;50.786;7.058;2023-06-10T11:47:03;100555.75;;;32.77;25.66
67109;BME280;54027;50.786;7.058;2023-06-10T11:49:28;100580.13;;;32.91;26.83
67109;BME280;54027;50.786;7.058;2023-06-10T11:51:54;100574.69;;;33.17;27.24
67109;BME280;54027;50.786;7.058;2023-06-10T11:54:19;100570.13;;;33.51;26.68
67109;BME280;54027;50.786;7.058;2023-06-10T11:56:46;100556.53;;;33.45;24.78
67109;BME280;54027;50.786;7.058;2023-06-10T11:59:11;100574.53;;;33.85;26.24
67109;BME280;54027;50.786;7.058;2023-06-10T12:01:40;100571.38;;;34.38;25.36
67109;BME280;54027;50.786;7.058;2023-06-10T12:04:11;100562.78;;;34.50;24.61
67109;BME280;54027;50.786;7.058;2023-06-10T12:06:44;100547.00;;;34.55;23.20
67109;BME280;54027;50.786;7.058;2023-06-10T12:11:43;100573.00;;;33.74;23.84
67109;BME280;54027;50.786;7.058;2023-06-10T12:14:09;100576.56;;;34.07;24.05
67109;BME280;54027;50.786;7.058;2023-06-10T12:16:34;100569.53;;;33.90;23.93
67109;BME280;54027;50.786;7.058;2023-06-10T12:19:05;100567.66;;;34.39;23.86
67109;BME280;54027;50.786;7.058;2023-06-10T12:21:33;100544.88;;;33.78;22.39
67109;BME280;54027;50.786;7.058;2023-06-10T12:24:04;100560.97;;;34.18;22.78
67109;BME280;54027;50.786;7.058;2023-06-10T12:26:43;100553.06;;;34.41;22.25
67109;BME280;54027;50.786;7.058;2023-06-10T12:29:21;100549.31;;;34.66;22.32
67109;BME280;54027;50.786;7.058;2023-06-10T12:32:02;100539.81;;;34.95;22.30
67109;BME280;54027;50.786;7.058;2023-06-10T12:34:38;100553.13;;;35.19;22.23
67109;BME280;54027;50.786;7.058;2023-06-10T12:37:06;100544.84;;;35.28;20.85
67109;BME280;54027;50.786;7.058;2023-06-10T12:39:38;100540.03;;;35.24;20.52
67109;BME280;54027;50.786;7.058;2023-06-10T12:42:04;100553.66;;;35.53;21.72
67109;BME280;54027;50.786;7.058;2023-06-10T12:44:32;100550.81;;;35.47;20.78
67109;BME280;54027;50.786;7.058;2023-06-10T12:46:58;100557.31;;;34.91;21.45
67109;BME280;54027;50.786;7.058;2023-06-10T12:49:24;100564.84;;;34.95;21.15
67109;BME280;54027;50.786;7.058;2023-06-10T12:51:50;100579.03;;;33.52;22.75
67109;BME280;54027;50.786;7.058;2023-06-10T12:54:15;100609.56;;;32.65;24.31
67109;BME280;54027;50.786;7.058;2023-06-10T12:56:41;100615.19;;;31.66;25.49